AirNav   Pilot Hours Calculator
 
 386 users online  

57CN Van Vleck Airport
Rancho Murieta, California, USA

GOING TO RANCHO MURIETA?


FAA INFORMATION EFFECTIVE 03 NOVEMBER 2022

Location

FAA Identifier: 57CN
Lat/Long: 38-28-08.6730N 121-04-30.7990W
38-28.144550N 121-04.513317W
38.4690758,-121.0752219
(estimated)
Elevation: 175 ft. / 53 m (estimated)
Variation: 16E (1985)
From city: 1 mile SE of RANCHO MURIETA, CA
Time zone: UTC -8 (UTC -7 during Daylight Saving Time)
Zip code: 95683

Airport Operations

Airport use: Private use. Permission required prior to landing
Control tower: no
ARTCC: OAKLAND CENTER
FSS: RANCHO MURIETA FLIGHT SERVICE STATION
Attendance: UNATNDD
Wind indicator: yes
Segmented circle: no

Airport Communications

WX AWOS-3PT at MHR (12 nm NW): 118.325 (916-366-3371)
WX AWOS-1 at O61 (14 nm N): 120.0 (530-677-5392)
WX AWOS-3 at JAQ (14 nm SE): 121.125 (209-257-1292)
WX AWOS-3 at MCC (19 nm NW): 125.975 (916-641-1272)
WX ASOS at SAC (20 nm W): PHONE 916-421-0923

Nearby radio navigation aids

VOR radial/distance  VOR name  Freq  Var
MCCr111/19.5MC CLELLAN VOR/DME109.2017E
HNWr208/21.7HANGTOWN VOR/DME115.5017E
SACr069/22.4SACRAMENTO VORTAC115.2017E
LINr335/23.9LINDEN VOR/DME114.8017E

Airport Services

Airframe service: NONE
Powerplant service: NONE

Runway Information

Runway 12/30

Dimensions: 2100 x 30 ft. / 640 x 9 m
Surface: asphalt
RUNWAY 12  RUNWAY 30
Traffic pattern: leftleft

Airport Ownership and Management from official FAA records

Ownership: Privately-owned
Owner: STANLEY O. VAN VLECK
7879 VAN VLECK ROAD
RANCHO MURIETA, CA 95683
Phone 916-354-2717

Airport Operational Statistics

Aircraft based on the field: 1
Single engine airplanes: 1
    

Additional Remarks

FOR CD CTC NORCAL APCH AT 916-361-6874.

Instrument Procedures

There are no published instrument procedures at 57CN.

Some nearby airports with instrument procedures:

KMHR - Sacramento Mather Airport (12 nm NW)
KJAQ - Westover Field / Amador County Airport (14 nm SE)
1O3 - Lodi Airport (18 nm SW)
KMCC - Mc Clellan Airfield (19 nm NW)
KSAC - Sacramento Executive Airport (20 nm W)
 
Loc | Ops | Rwys | IFR | FBO | Links
Com | Nav | Svcs | Stats | Notes
Area around 57CN (Van Vleck Airport)
 
Road maps at: MapQuest Bing Google
 
Aerial photo
WARNING: Photo may not be current or correct
Aerial photo of 57CN (Van Vleck Airport)
Do you have a better or more recent aerial photo of Van Vleck Airport that you would like to share? If so, please send us your photo.

 
Sectional chart

 
Airport distance calculator
Flying to Van Vleck Airport? Find the distance to fly.

From to 57CN

Sunrise and sunset
Times for 28-Nov-2022
 Local
(UTC-8)
 Zulu
(UTC)
Morning civil twilight06:3214:32
Sunrise07:0115:01
Sunset16:4400:44
Evening civil twilight17:1301:13

Current date and time
Zulu (UTC)  28-Nov-2022 09:46:56
Local (UTC-8)  28-Nov-2022 01:46:56
 
METAR
KMHR 
11nm W 
280935Z AUTO 00000KT 10SM CLR 03/01 A2995 RMK A01
KJAQ 
14nm SE 
280935Z AUTO 00000KT 10SM CLR 09/00 A2996 RMK AO1 T00850000
KMCC 
19nm NW 
280935Z AUTO 12004KT 10SM CLR 07/03 A2996 RMK AO2
KSAC 
20nm W 
280853Z AUTO 08003KT 10SM CLR 06/02 A2997 RMK AO2 SLP148 T00610022 $
TAF
KMHR 
11nm W 
280521Z 2806/2906 VRB04KT P6SM SCT200 FM280900 VRB03KT 6SM BR SCT150 FM281800 20006KT P6SM SCT120 FM290000 25006KT P6SM BKN100
KMCC 
19nm NW 
280521Z 2806/2906 VRB04KT P6SM SCT200 FM280900 VRB03KT 6SM BR SCT150 FM281800 20006KT P6SM SCT120 FM290000 26006KT P6SM BKN100
NOTAMs
Click for the latest NOTAMs
NOTAMs are issued by the DoD/FAA and will open in a separate window not controlled by AirNav.

 

 
 

Would you like to see your business listed on this page?

 If your business provides an interesting product or service to pilots, flight crews, aircraft, or users of the Van Vleck Airport, you should consider listing it here.  To start the listing process, click on the button below
 
Add a business
 

Other Pages about Van Vleck Airport

Update a link
 
Copyright © AirNav, LLC. All rights reserved. Privacy Policy  Contact